Time;durP1;ratioP1;P1;durP2;ratioP2;P2;SDS_P1;SDS_P2;PMS_P1;PMS_P2;Temp;Humidity;BMP_temperature;BMP_pressure;BME280_temperature;BME280_humidity;BME280_pressure;Samples;Min_cycle;Max_cycle;Signal;HPM_P1;HPM_P2
2021/09/17 00:04:41;;;;;;;1.48;0.77;;;19.20;73.90;;;;;;20819594;28;20128;-81
2021/09/17 00:14:42;;;;;;;0.82;0.70;;;19.20;73.80;;;;;;20838460;28;20033;-80
2021/09/17 00:24:44;;;;;;;1.00;0.60;;;19.20;73.80;;;;;;20805062;28;20433;-81
2021/09/17 00:34:45;;;;;;;0.80;0.57;;;19.20;73.70;;;;;;20820324;28;20180;-80
2021/09/17 00:44:46;;;;;;;1.42;0.70;;;19.20;73.70;;;;;;20836393;28;20479;-80
2021/09/17 00:54:47;;;;;;;3.30;0.60;;;19.20;73.70;;;;;;20834991;28;20037;-80
2021/09/17 01:04:47;;;;;;;2.08;0.60;;;19.20;73.70;;;;;;20817871;28;20056;-81
2021/09/17 01:14:48;;;;;;;1.55;0.90;;;19.20;73.70;;;;;;20816510;28;20034;-81
2021/09/17 01:24:49;;;;;;;1.95;1.02;;;19.20;73.70;;;;;;20816597;28;20455;-80
2021/09/17 01:34:49;;;;;;;1.27;0.85;;;19.20;73.70;;;;;;20799879;28;20602;-79
2021/09/17 01:44:50;;;;;;;1.27;0.77;;;19.20;73.70;;;;;;20815141;28;20070;-80
2021/09/17 01:54:50;;;;;;;1.10;0.70;;;19.20;73.70;;;;;;20814644;28;20045;-80
2021/09/17 02:04:51;;;;;;;1.60;0.52;;;19.10;73.70;;;;;;20813841;28;20488;-80
2021/09/17 02:14:54;;;;;;;1.45;0.60;;;19.10;73.70;;;;;;20813125;28;20507;-80
2021/09/17 02:24:54;;;;;;;2.15;0.93;;;19.10;73.70;;;;;;20810781;28;20045;-81
2021/09/17 02:34:55;;;;;;;1.45;0.68;;;19.10;73.80;;;;;;20827645;28;20489;-80
2021/09/17 02:44:57;;;;;;;2.33;0.80;;;19.10;73.80;;;;;;20826720;28;20072;-80
2021/09/17 02:54:57;;;;;;;2.83;0.90;;;19.10;73.90;;;;;;20809315;28;20068;-80
2021/09/17 03:04:59;;;;;;;1.33;0.90;;;19.00;73.80;;;;;;20808501;28;20038;-80
2021/09/17 03:15:00;;;;;;;1.13;0.73;;;19.10;73.90;;;;;;20824725;28;20570;-79
2021/09/17 03:25:01;;;;;;;1.63;0.70;;;19.10;73.90;;;;;;20826263;28;20025;-85
2021/09/17 03:35:02;;;;;;;0.77;0.53;;;19.00;73.90;;;;;;20794239;28;20037;-80
2021/09/17 03:45:03;;;;;;;3.38;0.85;;;19.10;74.00;;;;;;20841426;28;20315;-78
2021/09/17 03:55:05;;;;;;;0.75;0.60;;;19.10;73.90;;;;;;20792022;28;20034;-81
2021/09/17 04:05:06;;;;;;;1.85;0.77;;;19.10;73.90;;;;;;20794320;28;20124;-79
2021/09/17 04:15:07;;;;;;;2.00;0.68;;;19.10;73.90;;;;;;20788670;28;20072;-80
2021/09/17 04:25:09;;;;;;;1.73;0.70;;;19.00;73.90;;;;;;20788083;28;20029;-80
2021/09/17 04:35:10;;;;;;;1.30;1.10;;;19.00;73.80;;;;;;20788179;28;20388;-80
2021/09/17 04:45:10;;;;;;;1.92;0.75;;;19.00;73.80;;;;;;20806993;28;20042;-80
2021/09/17 04:55:11;;;;;;;2.13;1.20;;;19.00;73.90;;;;;;20836154;28;20029;-85
2021/09/17 05:05:12;;;;;;;2.47;0.77;;;19.00;73.80;;;;;;20835209;28;20045;-81
2021/09/17 05:15:16;;;;;;;6.13;1.33;;;19.00;73.80;;;;;;20820857;28;20037;-73
2021/09/17 05:25:17;;;;;;;2.92;0.73;;;18.90;73.70;;;;;;20787554;28;20038;-81
2021/09/17 05:35:17;;;;;;;1.92;0.70;;;18.90;73.70;;;;;;20719120;28;20416;-81
2021/09/17 05:45:18;;;;;;;3.50;1.00;;;19.00;73.80;;;;;;20714573;28;20471;-78
2021/09/17 05:55:20;;;;;;;1.23;0.80;;;18.90;73.80;;;;;;20775830;28;20534;-78
2021/09/17 06:05:21;;;;;;;2.25;1.20;;;19.00;73.90;;;;;;20810430;28;20045;-78
2021/09/17 06:15:21;;;;;;;2.40;1.30;;;19.00;73.90;;;;;;20767508;28;20029;-77
2021/09/17 06:25:22;;;;;;;1.38;1.02;;;18.90;73.80;;;;;;20810453;28;20120;-78
2021/09/17 06:35:23;;;;;;;2.08;1.20;;;18.90;73.90;;;;;;20831000;28;20430;-78
2021/09/17 06:45:23;;;;;;;1.27;1.00;;;18.90;73.90;;;;;;20891704;28;20479;-80
2021/09/17 06:55:28;;;;;;;1.02;0.60;;;18.90;73.90;;;;;;20836939;28;20297;-79
2021/09/17 07:05:29;;;;;;;1.73;1.13;;;18.90;73.80;;;;;;20741226;28;20033;-79
2021/09/17 07:15:30;;;;;;;2.28;1.23;;;18.90;74.50;;;;;;20746910;28;20030;-80
2021/09/17 07:25:31;;;;;;;2.17;1.00;;;18.90;73.80;;;;;;20801700;28;20515;-80
2021/09/17 07:35:32;;;;;;;2.35;1.23;;;18.90;73.80;;;;;;20790523;28;20042;-79
2021/09/17 07:45:33;;;;;;;3.67;1.20;;;18.90;73.80;;;;;;20805910;28;20435;-80
2021/09/17 07:55:34;;;;;;;2.05;1.08;;;18.90;73.80;;;;;;20805219;28;20327;-79
2021/09/17 08:05:34;;;;;;;1.90;1.10;;;18.90;73.80;;;;;;20787751;28;20703;-80
2021/09/17 08:15:35;;;;;;;1.45;0.85;;;18.90;73.80;;;;;;20802588;28;20061;-78
2021/09/17 08:25:36;;;;;;;0.90;0.70;;;18.90;73.80;;;;;;20813945;28;20120;-79
2021/09/17 08:35:36;;;;;;;1.13;0.80;;;18.80;73.60;;;;;;20819535;28;20033;-77
2021/09/17 08:45:37;;;;;;;4.35;0.80;;;18.90;73.60;;;;;;20819978;28;20395;-80
2021/09/17 08:55:39;;;;;;;1.27;0.82;;;18.90;73.60;;;;;;20836132;28;20442;-79
2021/09/17 09:05:41;;;;;;;2.83;0.90;;;18.90;73.60;;;;;;20817368;28;20121;-78
2021/09/17 09:15:41;;;;;;;1.50;0.85;;;18.80;73.40;;;;;;20813577;28;20034;-78
2021/09/17 09:26:01;;;;;;;1.67;0.60;;;18.80;73.40;;;;;;20799879;28;20120;-78
2021/09/17 09:36:07;;;;;;;3.88;0.75;;;18.80;73.30;;;;;;20801146;28;20077;-76
2021/09/17 09:46:19;;;;;;;0.82;0.50;;;18.80;73.30;;;;;;20816735;28;20128;-75
2021/09/17 09:56:20;;;;;;;0.55;0.47;;;18.80;73.30;;;;;;20799326;28;20046;-77
2021/09/17 10:06:23;;;;;;;0.90;0.50;;;18.80;73.30;;;;;;20832023;28;20066;-78
2021/09/17 10:16:24;;;;;;;0.50;0.47;;;18.80;73.20;;;;;;21220654;22;20021;-78
2021/09/17 10:26:25;;;;;;;1.52;0.50;;;18.80;73.10;;;;;;20647559;28;20034;-77
2021/09/17 10:36:41;;;;;;;0.50;0.38;;;18.80;72.90;;;;;;20648396;28;20037;-77
2021/09/17 10:46:41;;;;;;;2.08;0.50;;;18.80;72.80;;;;;;20647051;28;20041;-77
2021/09/17 10:56:48;;;;;;;0.40;0.30;;;18.80;72.80;;;;;;20663398;28;20644;-78
2021/09/17 11:06:49;;;;;;;2.65;0.55;;;18.80;72.80;;;;;;20662298;28;20040;-79
2021/09/17 11:16:51;;;;;;;0.70;0.30;;;18.80;72.70;;;;;;20656577;28;20037;-78
2021/09/17 11:26:52;;;;;;;1.58;0.40;;;18.80;72.70;;;;;;20724412;28;20045;-80
2021/09/17 11:36:56;;;;;;;1.38;0.40;;;18.80;72.60;;;;;;20652606;28;20038;-81
2021/09/17 11:46:56;;;;;;;0.57;0.32;;;18.80;72.50;;;;;;20643377;28;20040;-76
2021/09/17 11:57:05;;;;;;;0.38;0.30;;;18.80;72.40;;;;;;20651662;28;20624;-77
2021/09/17 12:07:05;;;;;;;0.40;0.28;;;18.80;72.40;;;;;;20659941;28;20093;-79
2021/09/17 12:17:07;;;;;;;0.77;0.32;;;18.80;72.30;;;;;;20641666;28;20608;-74
2021/09/17 12:27:09;;;;;;;0.73;0.68;;;18.80;72.10;;;;;;20624231;28;20282;-76
2021/09/17 12:37:10;;;;;;;1.25;0.40;;;18.80;71.90;;;;;;20639538;28;20056;-75
2021/09/17 12:47:10;;;;;;;1.40;0.40;;;18.80;71.80;;;;;;20637258;28;20472;-75
2021/09/17 12:57:21;;;;;;;0.77;0.30;;;18.90;71.80;;;;;;20728860;28;20034;-76
2021/09/17 13:07:22;;;;;;;2.10;0.60;;;18.90;71.60;;;;;;20719036;28;20329;-74
2021/09/17 13:17:22;;;;;;;0.90;0.30;;;18.80;71.50;;;;;;20637428;28;20126;-78
2021/09/17 13:27:23;;;;;;;0.70;0.38;;;18.80;71.50;;;;;;20637085;28;20047;-77
2021/09/17 13:37:24;;;;;;;0.30;0.10;;;18.80;71.50;;;;;;20655006;28;20042;-76
2021/09/17 13:47:24;;;;;;;1.65;0.28;;;18.90;71.40;;;;;;20636772;28;20046;-77
2021/09/17 13:57:25;;;;;;;0.22;0.20;;;18.90;71.50;;;;;;20634454;28;20030;-78
2021/09/17 14:07:26;;;;;;;0.70;0.30;;;18.90;71.40;;;;;;20620381;28;20038;-78
2021/09/17 14:17:26;;;;;;;2.33;0.30;;;18.80;71.40;;;;;;20653313;28;20455;-76
2021/09/17 14:27:27;;;;;;;1.15;0.20;;;18.80;71.30;;;;;;20650981;28;20043;-78
2021/09/17 14:37:29;;;;;;;0.52;0.30;;;18.80;71.10;;;;;;20664726;28;20397;-82
2021/09/17 14:47:29;;;;;;;1.45;0.38;;;18.80;70.90;;;;;;20647499;28;20476;-85
2021/09/17 14:57:30;;;;;;;0.20;0.20;;;18.90;70.80;;;;;;20632648;28;20027;-77
2021/09/17 15:07:31;;;;;;;0.88;0.52;;;18.80;71.40;;;;;;20650397;28;20157;-75
2021/09/17 15:17:31;;;;;;;1.08;0.38;;;18.90;70.80;;;;;;20644438;28;20042;-78
2021/09/17 15:27:32;;;;;;;0.95;0.20;;;18.90;70.80;;;;;;20659762;28;20045;-78
2021/09/17 15:37:32;;;;;;;0.25;0.20;;;18.80;70.80;;;;;;20642825;28;20110;-77
2021/09/17 15:47:33;;;;;;;0.10;0.10;;;18.80;70.90;;;;;;20709687;28;20079;-77
2021/09/17 15:57:34;;;;;;;2.47;0.40;;;18.80;71.00;;;;;;20722563;28;20117;-77
2021/09/17 16:07:35;;;;;;;1.67;0.38;;;18.80;71.20;;;;;;20642744;28;20038;-76
2021/09/17 16:17:35;;;;;;;0.20;0.20;;;18.80;71.90;;;;;;20658456;28;20144;-77
2021/09/17 16:27:36;;;;;;;0.75;0.30;;;18.90;71.40;;;;;;20667449;28;20290;-77
2021/09/17 16:37:37;;;;;;;1.20;0.65;;;18.80;71.40;;;;;;20656572;28;20386;-80
2021/09/17 16:47:39;;;;;;;2.45;0.40;;;18.80;72.10;;;;;;20651303;28;20073;-81
2021/09/17 16:57:40;;;;;;;2.88;0.40;;;18.90;71.60;;;;;;20649112;28;20636;-77
2021/09/17 17:07:41;;;;;;;1.33;0.52;;;18.80;71.70;;;;;;20713308;28;20100;-75
2021/09/17 17:17:42;;;;;;;1.35;0.30;;;18.80;71.70;;;;;;20732660;28;20041;-75
2021/09/17 17:27:44;;;;;;;1.25;0.68;;;18.80;71.70;;;;;;20700171;28;20038;-74
2021/09/17 17:37:45;;;;;;;0.40;0.35;;;18.80;71.70;;;;;;20732356;28;20392;-74
2021/09/17 17:47:46;;;;;;;0.70;0.43;;;18.80;71.80;;;;;;20731446;28;20034;-76
2021/09/17 17:57:48;;;;;;;1.40;0.40;;;18.80;71.80;;;;;;20714259;28;20093;-75
2021/09/17 18:07:49;;;;;;;0.28;0.22;;;18.70;71.90;;;;;;20647616;28;20034;-78
2021/09/17 18:17:50;;;;;;;0.98;0.35;;;18.70;71.90;;;;;;20631737;28;20070;-77
2021/09/17 18:27:51;;;;;;;0.57;0.30;;;18.80;72.00;;;;;;20664625;28;20448;-77
2021/09/17 18:37:53;;;;;;;1.33;0.50;;;18.80;72.00;;;;;;20632067;28;20440;-78
2021/09/17 18:47:53;;;;;;;1.15;0.50;;;18.80;72.00;;;;;;20663041;28;20058;-77
2021/09/17 18:57:55;;;;;;;0.88;0.30;;;18.80;72.00;;;;;;20662970;28;20042;-77
2021/09/17 19:07:55;;;;;;;1.33;0.40;;;18.70;72.00;;;;;;20629625;28;20038;-78
2021/09/17 19:18:01;;;;;;;0.57;0.40;;;18.70;72.00;;;;;;20667708;28;20463;-77
2021/09/17 19:28:05;;;;;;;1.73;0.50;;;18.70;71.90;;;;;;20711923;28;20050;-78
2021/09/17 19:38:07;;;;;;;0.80;0.60;;;18.70;71.90;;;;;;20640085;28;20493;-79
2021/09/17 19:48:08;;;;;;;1.90;0.55;;;18.70;71.90;;;;;;20682581;28;20041;-78
2021/09/17 19:58:09;;;;;;;0.95;0.55;;;18.70;71.80;;;;;;20734375;28;20050;-78
2021/09/17 20:08:10;;;;;;;1.08;0.65;;;18.70;71.80;;;;;;20654397;28;20034;-77
2021/09/17 20:18:11;;;;;;;0.47;0.43;;;18.70;71.80;;;;;;20651756;28;20042;-78
2021/09/17 20:28:11;;;;;;;0.77;0.50;;;18.70;71.70;;;;;;20674683;28;20030;-77
2021/09/17 20:38:16;;;;;;;0.97;0.63;;;18.70;71.70;;;;;;20641440;28;20121;-77
2021/09/17 20:48:17;;;;;;;0.52;0.52;;;18.70;71.70;;;;;;20657284;28;20340;-78
2021/09/17 20:58:17;;;;;;;1.40;0.70;;;18.70;71.70;;;;;;20639719;28;20038;-77
2021/09/17 21:08:18;;;;;;;2.25;0.70;;;18.60;71.60;;;;;;20623998;28;20404;-77
2021/09/17 21:18:19;;;;;;;1.05;0.90;;;18.70;71.60;;;;;;20623347;28;20042;-77
2021/09/17 21:28:20;;;;;;;0.68;0.50;;;18.70;71.60;;;;;;20669558;28;20096;-77
2021/09/17 21:38:20;;;;;;;1.07;0.67;;;18.70;71.60;;;;;;20637477;28;20439;-79
2021/09/17 21:48:21;;;;;;;0.98;0.57;;;18.70;71.50;;;;;;20637013;28;20384;-79
2021/09/17 21:58:22;;;;;;;1.42;0.80;;;18.70;72.20;;;;;;20653177;28;20038;-77
2021/09/17 22:08:22;;;;;;;0.90;0.70;;;18.70;71.50;;;;;;20634678;28;20035;-77
2021/09/17 22:18:24;;;;;;;1.08;0.65;;;18.60;71.40;;;;;;20650583;28;20301;-78
2021/09/17 22:28:25;;;;;;;2.42;1.00;;;18.60;71.40;;;;;;20649521;28;20499;-77
2021/09/17 22:38:26;;;;;;;0.98;0.63;;;18.60;71.40;;;;;;20665095;28;20578;-77
2021/09/17 22:48:26;;;;;;;1.15;0.60;;;18.60;71.40;;;;;;20615977;28;20061;-78
2021/09/17 22:58:27;;;;;;;1.07;0.63;;;18.60;71.40;;;;;;20632869;28;20484;-77
2021/09/17 23:08:27;;;;;;;0.90;0.57;;;18.60;71.30;;;;;;20630295;28;20388;-76
2021/09/17 23:18:29;;;;;;;0.90;0.40;;;18.60;71.30;;;;;;20645670;28;20105;-78
2021/09/17 23:28:30;;;;;;;0.50;0.45;;;18.60;71.20;;;;;;20661776;28;20053;-76
2021/09/17 23:38:30;;;;;;;1.13;0.40;;;18.60;71.20;;;;;;20645108;28;20041;-78
2021/09/17 23:48:31;;;;;;;0.90;0.40;;;18.60;71.10;;;;;;20611989;28;20050;-77
2021/09/17 23:58:32;;;;;;;0.47;0.30;;;18.60;71.10;;;;;;20645611;28;20385;-79
